»·PEaware :: N101JP KSBA-KSNA

N101JP :: KSBA-KSNA

FLIGHT INFORMATION

Flight Status: Arrived
Operator: Privately registered:
United States
More flights under this callsign
Pilot: James T. (870)
Aircraft: PILATUS PC-12 EAGLE
(PC12)
More flights by this aircraft type
Origin: KSBA Santa Barbara Mun
United States
Destination: KSNA John Wayne-Orange Co
United States
More flights between these airports :: More routes between these airports
Route: KWANG VTU V208 SXC SLI
File this flight plan on PilotEdge
Remarks:
Altitude:
(Current/Filed)
90ft
Speed:
(Current/Filed)
200kts
Departed: 22-Feb-15 05:08 PM
Arrived: 22-Feb-15 06:03 PM
Distance/Time
Traveled:
108nm/0:54
Distance/Time
To Go:
Arrived

Flight Plot

Page will automatically refresh every two minutes.


Map Options




Map Legend


Flown Route
Filed Route
Departure Airport
Arrival Airport
Navaid (VOR, NDB)
Fix

Horizontal Profiles

Position Reports

Time Latitude Longitude Heading Altitude Ground
Speed
22-Feb-15 16:53 34.425595 -119.836862 42 19ft 0kts
22-Feb-15 16:54 34.425595 -119.836862 42 19ft 0kts
22-Feb-15 16:55 34.425595 -119.836862 42 19ft 0kts
22-Feb-15 16:56 34.425595 -119.836862 42 19ft 0kts
22-Feb-15 16:57 34.425595 -119.836862 42 19ft 0kts
22-Feb-15 16:58 34.425595 -119.836862 42 19ft 0kts
22-Feb-15 16:59 34.425866 -119.836486 52 19ft 4kts
22-Feb-15 17:00 34.426664 -119.835236 34 19ft 0kts
22-Feb-15 17:01 34.427528 -119.835884 265 19ft 20kts
22-Feb-15 17:02 34.427433 -119.876611 267 979ft 161kts
22-Feb-15 17:03 34.427398 -119.931930 267 2817ft 167kts
22-Feb-15 17:04 34.420385 -119.984367 206 4593ft 161kts
22-Feb-15 17:05 34.396354 -119.950139 105 6337ft 163kts
22-Feb-15 17:06 34.385648 -119.896957 106 7952ft 170kts
22-Feb-15 17:07 34.372468 -119.831015 105 8029ft 223kts
22-Feb-15 17:08 34.358577 -119.761274 105 9005ft 209kts
22-Feb-15 17:09 34.344039 -119.688254 105 9006ft 232kts
22-Feb-15 17:10 34.328805 -119.611829 105 9003ft 237kts
22-Feb-15 17:11 34.313412 -119.534802 105 9006ft 244kts
22-Feb-15 17:12 34.286548 -119.460019 118 9006ft 246kts
22-Feb-15 17:13 34.255800 -119.386091 118 9010ft 248kts
22-Feb-15 17:14 34.225284 -119.312970 118 9010ft 248kts
22-Feb-15 17:15 34.194816 -119.240172 118 9010ft 249kts
22-Feb-15 17:16 34.164115 -119.166998 118 8963ft 252kts
22-Feb-15 17:17 34.134893 -119.097504 118 8945ft 254kts
22-Feb-15 17:18 34.087943 -119.046193 181 8936ft 242kts
22-Feb-15 17:19 34.020809 -119.039574 176 8930ft 242kts
22-Feb-15 17:20 33.953815 -119.032790 176 8931ft 241kts
22-Feb-15 17:21 33.887106 -119.025963 176 8931ft 241kts
22-Feb-15 17:22 33.820380 -119.019113 176 8932ft 241kts
22-Feb-15 17:23 33.765314 -118.979782 131 8935ft 248kts
22-Feb-15 17:24 33.721057 -118.915894 132 8940ft 248kts
22-Feb-15 17:25 33.677771 -118.852918 132 8942ft 250kts
22-Feb-15 17:26 33.633118 -118.788268 133 8948ft 253kts
22-Feb-15 17:27 33.587773 -118.723056 133 8947ft 254kts
22-Feb-15 17:28 33.544926 -118.661671 134 8944ft 229kts
22-Feb-15 17:29 33.529849 -118.640122 134 8945ft 224kts
22-Feb-15 17:30 33.529849 -118.640122 134 8945ft 224kts
22-Feb-15 17:31 33.529849 -118.640122 134 8945ft 224kts
22-Feb-15 17:32 33.491816 -118.585849 134 8947ft 213kts
22-Feb-15 17:33 33.460285 -118.540944 134 8948ft 210kts
22-Feb-15 17:34 33.423113 -118.488087 134 8962ft 208kts
22-Feb-15 17:35 33.385358 -118.433376 123 8996ft 230kts
22-Feb-15 17:36 33.419125 -118.374186 31 8830ft 250kts
22-Feb-15 17:37 33.476181 -118.326776 33 7352ft 248kts
22-Feb-15 17:38 33.531727 -118.278456 34 5863ft 245kts
22-Feb-15 17:39 33.584595 -118.231698 35 5010ft 230kts
22-Feb-15 17:40 33.634023 -118.188076 34 4988ft 215kts
22-Feb-15 17:41 33.680135 -118.134202 43 3497ft 238kts
22-Feb-15 17:42 33.725238 -118.081348 44 2993ft 208kts
22-Feb-15 17:43 33.765036 -118.034769 43 2999ft 195kts
22-Feb-15 17:44 33.803744 -117.989328 44 2998ft 194kts
22-Feb-15 17:45 33.841744 -117.944532 43 2995ft 187kts
22-Feb-15 17:46 33.879485 -117.899779 44 2999ft 193kts
22-Feb-15 17:47 33.917178 -117.854705 43 2988ft 196kts
22-Feb-15 17:48 33.908280 -117.806018 135 3017ft 151kts
22-Feb-15 17:49 33.881409 -117.777797 186 2993ft 116kts
22-Feb-15 17:50 33.847479 -117.776946 183 3001ft 126kts
22-Feb-15 17:51 33.814206 -117.780954 214 2933ft 118kts
22-Feb-15 17:52 33.785337 -117.799264 209 2346ft 116kts
22-Feb-15 17:53 33.757590 -117.816885 208 1745ft 109kts
22-Feb-15 17:54 33.731423 -117.833471 209 1168ft 102kts
22-Feb-15 17:55 33.707624 -117.848601 209 654ft 93kts
22-Feb-15 17:56 33.684799 -117.863106 208 167ft 91kts
22-Feb-15 17:57 33.674100 -117.870115 261 62ft 5kts
22-Feb-15 17:58 33.674945 -117.870853 28 62ft 9kts
22-Feb-15 17:59 33.676056 -117.871165 129 62ft 0kts
22-Feb-15 18:00 33.676056 -117.871165 129 62ft 0kts
22-Feb-15 18:01 33.676056 -117.871165 129 62ft 0kts
22-Feb-15 18:02 33.676056 -117.871165 129 61ft 0kts
22-Feb-15 18:03 33.676056 -117.871165 129 61ft 0kts
22-Feb-15 18:04 33.676056 -117.871165 129 61ft 0kts
22-Feb-15 18:05 33.676056 -117.871165 129 61ft 0kts
22-Feb-15 18:06 33.676056 -117.871165 129 61ft 0kts
22-Feb-15 18:07 33.676056 -117.871165 129 61ft 0kts
22-Feb-15 18:08 33.676056 -117.871165 129 61ft 0kts
22-Feb-15 18:09 33.676056 -117.871165 129 61ft 0kts
22-Feb-15 18:10 33.676056 -117.871165 129 61ft 0kts
22-Feb-15 18:11 33.676056 -117.871165 129 61ft 0kts

Navigation Log

Ident Type
Flight plan parsing failed, navigation log unavailable